sensor_id;sensor_type;location;lat;lon;timestamp;pressure;altitude;pressure_sealevel;temperature;humidity
51053;BME280;37093;37.716;-122.060;2023-07-30T00:01:23;99995.34;;;26.69;29.66
51053;BME280;37093;37.716;-122.060;2023-07-30T00:03:52;100000.97;;;27.37;28.50
51053;BME280;37093;37.716;-122.060;2023-07-30T00:06:20;100003.54;;;27.33;28.19
51053;BME280;37093;37.716;-122.060;2023-07-30T00:08:49;100008.51;;;27.03;29.15
51053;BME280;37093;37.716;-122.060;2023-07-30T00:11:17;100009.90;;;26.73;28.64
51053;BME280;37093;37.716;-122.060;2023-07-30T00:13:46;100015.71;;;26.03;30.30
51053;BME280;37093;37.716;-122.060;2023-07-30T00:16:14;100009.77;;;26.51;29.27
51053;BME280;37093;37.716;-122.060;2023-07-30T00:18:43;100008.22;;;26.26;30.20
51053;BME280;37093;37.716;-122.060;2023-07-30T00:21:11;100013.19;;;26.20;29.86
51053;BME280;37093;37.716;-122.060;2023-07-30T00:23:40;100008.63;;;26.39;30.39
51053;BME280;37093;37.716;-122.060;2023-07-30T00:26:08;100013.53;;;25.13;31.61
51053;BME280;37093;37.716;-122.060;2023-07-30T00:28:37;100013.11;;;25.88;30.85
51053;BME280;37093;37.716;-122.060;2023-07-30T00:31:05;100011.45;;;24.52;32.72
51053;BME280;37093;37.716;-122.060;2023-07-30T00:33:34;100009.56;;;25.51;31.30
51053;BME280;37093;37.716;-122.060;2023-07-30T00:36:02;100014.45;;;25.25;31.22
51053;BME280;37093;37.716;-122.060;2023-07-30T00:38:31;100013.74;;;25.07;31.71
51053;BME280;37093;37.716;-122.060;2023-07-30T00:40:59;100013.44;;;25.43;30.78
51053;BME280;37093;37.716;-122.060;2023-07-30T00:43:28;100011.03;;;25.05;31.80
51053;BME280;37093;37.716;-122.060;2023-07-30T00:45:56;100009.17;;;25.18;30.78
51053;BME280;37093;37.716;-122.060;2023-07-30T00:48:25;100003.01;;;24.61;31.59
51053;BME280;37093;37.716;-122.060;2023-07-30T00:50:53;99997.18;;;25.49;31.19
51053;BME280;37093;37.716;-122.060;2023-07-30T00:53:22;99996.04;;;24.30;32.67
51053;BME280;37093;37.716;-122.060;2023-07-30T00:55:52;99995.93;;;24.93;32.21
51053;BME280;37093;37.716;-122.060;2023-07-30T00:58:21;99996.30;;;24.91;31.47
51053;BME280;37093;37.716;-122.060;2023-07-30T01:00:51;99994.50;;;25.64;30.91
51053;BME280;37093;37.716;-122.060;2023-07-30T01:03:20;99994.72;;;25.49;31.04
51053;BME280;37093;37.716;-122.060;2023-07-30T01:05:48;99993.78;;;24.81;31.32
51053;BME280;37093;37.716;-122.060;2023-07-30T01:08:17;99989.23;;;25.25;30.37
51053;BME280;37093;37.716;-122.060;2023-07-30T01:10:45;99993.39;;;24.57;31.52
51053;BME280;37093;37.716;-122.060;2023-07-30T01:13:16;99989.98;;;24.41;32.41
51053;BME280;37093;37.716;-122.060;2023-07-30T01:15:45;99992.06;;;24.76;32.99
51053;BME280;37093;37.716;-122.060;2023-07-30T01:18:14;99992.74;;;24.69;33.24
51053;BME280;37093;37.716;-122.060;2023-07-30T01:20:42;99988.65;;;24.58;33.69
51053;BME280;37093;37.716;-122.060;2023-07-30T01:23:10;99983.46;;;24.28;35.05
51053;BME280;37093;37.716;-122.060;2023-07-30T01:25:40;99988.75;;;23.66;35.89
51053;BME280;37093;37.716;-122.060;2023-07-30T01:28:12;99988.86;;;23.63;35.51
51053;BME280;37093;37.716;-122.060;2023-07-30T01:30:43;99982.19;;;24.26;34.21
51053;BME280;37093;37.716;-122.060;2023-07-30T01:33:13;99988.77;;;23.83;34.99
51053;BME280;37093;37.716;-122.060;2023-07-30T01:35:42;99997.83;;;23.42;35.10
51053;BME280;37093;37.716;-122.060;2023-07-30T01:38:11;99999.98;;;23.89;34.50
51053;BME280;37093;37.716;-122.060;2023-07-30T01:40:40;99992.88;;;23.76;33.66
51053;BME280;37093;37.716;-122.060;2023-07-30T01:43:09;99991.31;;;24.52;32.36
51053;BME280;37093;37.716;-122.060;2023-07-30T01:45:37;99996.11;;;23.64;33.57
51053;BME280;37093;37.716;-122.060;2023-07-30T01:48:06;99997.54;;;22.63;35.44
51053;BME280;37093;37.716;-122.060;2023-07-30T01:50:34;99998.03;;;22.68;35.24
51053;BME280;37093;37.716;-122.060;2023-07-30T01:53:03;99997.04;;;23.17;34.93
51053;BME280;37093;37.716;-122.060;2023-07-30T01:55:31;99995.94;;;23.79;33.86
51053;BME280;37093;37.716;-122.060;2023-07-30T01:58:00;100002.88;;;22.35;35.84
51053;BME280;37093;37.716;-122.060;2023-07-30T02:00:28;100000.31;;;22.48;35.35
51053;BME280;37093;37.716;-122.060;2023-07-30T02:02:57;100000.76;;;23.39;34.56
51053;BME280;37093;37.716;-122.060;2023-07-30T02:05:25;100005.23;;;23.14;34.93
51053;BME280;37093;37.716;-122.060;2023-07-30T02:07:53;100003.98;;;23.96;35.11
51053;BME280;37093;37.716;-122.060;2023-07-30T02:10:23;100005.23;;;23.38;35.84
51053;BME280;37093;37.716;-122.060;2023-07-30T02:12:51;100003.86;;;23.13;37.33
51053;BME280;37093;37.716;-122.060;2023-07-30T02:15:20;100006.13;;;23.50;37.28
51053;BME280;37093;37.716;-122.060;2023-07-30T02:17:48;100002.43;;;22.89;38.51
51053;BME280;37093;37.716;-122.060;2023-07-30T02:20:17;100002.31;;;23.14;38.20
51053;BME280;37093;37.716;-122.060;2023-07-30T02:22:45;100003.31;;;23.46;37.61
51053;BME280;37093;37.716;-122.060;2023-07-30T02:25:14;100007.38;;;23.23;37.23
51053;BME280;37093;37.716;-122.060;2023-07-30T02:27:42;100007.59;;;23.17;36.93
51053;BME280;37093;37.716;-122.060;2023-07-30T02:30:11;100011.35;;;22.84;36.79
51053;BME280;37093;37.716;-122.060;2023-07-30T02:32:39;100009.63;;;23.03;37.02
51053;BME280;37093;37.716;-122.060;2023-07-30T02:35:08;100008.01;;;23.41;36.64
51053;BME280;37093;37.716;-122.060;2023-07-30T02:37:36;100005.54;;;23.01;37.48
51053;BME280;37093;37.716;-122.060;2023-07-30T02:40:05;100005.76;;;22.40;38.78
51053;BME280;37093;37.716;-122.060;2023-07-30T02:42:34;100013.33;;;21.52;40.72
51053;BME280;37093;37.716;-122.060;2023-07-30T02:45:02;100019.76;;;21.86;39.97
51053;BME280;37093;37.716;-122.060;2023-07-30T02:47:31;100025.99;;;21.26;40.79
51053;BME280;37093;37.716;-122.060;2023-07-30T02:50:00;100022.38;;;21.80;39.78
51053;BME280;37093;37.716;-122.060;2023-07-30T02:52:29;100027.48;;;21.21;40.73
51053;BME280;37093;37.716;-122.060;2023-07-30T02:54:58;100028.30;;;21.52;40.92
51053;BME280;37093;37.716;-122.060;2023-07-30T02:57:26;100027.43;;;22.13;40.16
51053;BME280;37093;37.716;-122.060;2023-07-30T02:59:55;100032.48;;;22.37;40.14
51053;BME280;37093;37.716;-122.060;2023-07-30T03:02:24;100029.17;;;21.48;41.06
51053;BME280;37093;37.716;-122.060;2023-07-30T03:04:52;100031.82;;;22.37;40.77
51053;BME280;37093;37.716;-122.060;2023-07-30T03:07:21;100039.93;;;20.92;42.55
51053;BME280;37093;37.716;-122.060;2023-07-30T03:09:50;100037.60;;;21.98;41.72
51053;BME280;37093;37.716;-122.060;2023-07-30T03:12:18;100044.27;;;21.71;41.77
51053;BME280;37093;37.716;-122.060;2023-07-30T03:14:47;100041.50;;;21.79;40.55
51053;BME280;37093;37.716;-122.060;2023-07-30T03:17:15;100038.58;;;21.68;40.72
51053;BME280;37093;37.716;-122.060;2023-07-30T03:19:44;100038.86;;;22.50;39.70
51053;BME280;37093;37.716;-122.060;2023-07-30T03:22:12;100039.45;;;21.73;40.58
51053;BME280;37093;37.716;-122.060;2023-07-30T03:24:41;100039.43;;;21.95;41.86
51053;BME280;37093;37.716;-122.060;2023-07-30T03:27:11;100042.40;;;21.54;41.93
51053;BME280;37093;37.716;-122.060;2023-07-30T03:29:41;100046.80;;;21.12;43.20
51053;BME280;37093;37.716;-122.060;2023-07-30T03:32:10;100042.67;;;21.62;42.68
51053;BME280;37093;37.716;-122.060;2023-07-30T03:34:38;100047.60;;;21.23;44.71
51053;BME280;37093;37.716;-122.060;2023-07-30T03:37:07;100046.17;;;21.54;43.23
51053;BME280;37093;37.716;-122.060;2023-07-30T03:39:35;100050.06;;;20.55;45.10
51053;BME280;37093;37.716;-122.060;2023-07-30T03:42:04;100050.68;;;21.42;44.12
51053;BME280;37093;37.716;-122.060;2023-07-30T03:44:32;100052.68;;;21.04;45.63
51053;BME280;37093;37.716;-122.060;2023-07-30T03:47:00;100052.57;;;21.09;45.34
51053;BME280;37093;37.716;-122.060;2023-07-30T03:49:29;100055.13;;;21.53;44.35
51053;BME280;37093;37.716;-122.060;2023-07-30T03:51:57;100059.59;;;21.03;44.83
51053;BME280;37093;37.716;-122.060;2023-07-30T03:54:27;100060.41;;;21.08;44.46
51053;BME280;37093;37.716;-122.060;2023-07-30T03:56:55;100062.77;;;21.07;44.81
51053;BME280;37093;37.716;-122.060;2023-07-30T03:59:23;100060.68;;;21.59;44.52
51053;BME280;37093;37.716;-122.060;2023-07-30T04:01:51;100057.74;;;20.30;45.97
51053;BME280;37093;37.716;-122.060;2023-07-30T04:04:20;100060.15;;;20.98;45.14
51053;BME280;37093;37.716;-122.060;2023-07-30T04:06:48;100061.12;;;20.79;44.83
51053;BME280;37093;37.716;-122.060;2023-07-30T04:09:17;100057.52;;;20.37;44.97
51053;BME280;37093;37.716;-122.060;2023-07-30T04:11:45;100056.86;;;21.10;43.60
51053;BME280;37093;37.716;-122.060;2023-07-30T04:14:14;100058.42;;;21.07;44.73
51053;BME280;37093;37.716;-122.060;2023-07-30T04:16:42;100057.25;;;21.12;44.45
51053;BME280;37093;37.716;-122.060;2023-07-30T04:19:11;100055.22;;;20.12;46.07
51053;BME280;37093;37.716;-122.060;2023-07-30T04:21:39;100061.66;;;20.03;46.68
51053;BME280;37093;37.716;-122.060;2023-07-30T04:24:08;100065.12;;;20.20;47.03
51053;BME280;37093;37.716;-122.060;2023-07-30T04:26:36;100068.35;;;20.19;46.41
51053;BME280;37093;37.716;-122.060;2023-07-30T04:29:04;100076.10;;;19.18;48.12
51053;BME280;37093;37.716;-122.060;2023-07-30T04:31:32;100074.83;;;19.46;47.17
51053;BME280;37093;37.716;-122.060;2023-07-30T04:34:01;100075.35;;;18.73;48.70
51053;BME280;37093;37.716;-122.060;2023-07-30T04:36:29;100072.37;;;20.17;46.41
51053;BME280;37093;37.716;-122.060;2023-07-30T04:38:59;100074.34;;;20.18;45.53
51053;BME280;37093;37.716;-122.060;2023-07-30T04:41:27;100079.15;;;19.53;46.52
51053;BME280;37093;37.716;-122.060;2023-07-30T04:43:56;100079.32;;;19.95;46.57
51053;BME280;37093;37.716;-122.060;2023-07-30T04:46:24;100080.46;;;19.66;46.50
51053;BME280;37093;37.716;-122.060;2023-07-30T04:48:53;100081.55;;;20.21;47.06
51053;BME280;37093;37.716;-122.060;2023-07-30T04:51:21;100088.80;;;19.90;47.03
51053;BME280;37093;37.716;-122.060;2023-07-30T04:53:49;100086.28;;;19.82;47.06
51053;BME280;37093;37.716;-122.060;2023-07-30T04:56:17;100089.89;;;19.88;47.63
51053;BME280;37093;37.716;-122.060;2023-07-30T04:58:46;100089.19;;;20.07;46.49
51053;BME280;37093;37.716;-122.060;2023-07-30T05:01:14;100092.10;;;20.32;45.94
51053;BME280;37093;37.716;-122.060;2023-07-30T05:03:42;100091.82;;;20.30;46.80
51053;BME280;37093;37.716;-122.060;2023-07-30T05:06:10;100094.62;;;19.46;47.44
51053;BME280;37093;37.716;-122.060;2023-07-30T05:08:38;100092.40;;;20.12;46.90
51053;BME280;37093;37.716;-122.060;2023-07-30T05:11:07;100093.01;;;20.48;47.83
51053;BME280;37093;37.716;-122.060;2023-07-30T05:13:35;100095.85;;;19.86;47.88
51053;BME280;37093;37.716;-122.060;2023-07-30T05:16:03;100088.30;;;20.04;47.58
51053;BME280;37093;37.716;-122.060;2023-07-30T05:18:31;100086.13;;;20.22;47.59
51053;BME280;37093;37.716;-122.060;2023-07-30T05:21:00;100085.01;;;19.83;47.18
51053;BME280;37093;37.716;-122.060;2023-07-30T05:23:28;100083.03;;;19.98;47.31
51053;BME280;37093;37.716;-122.060;2023-07-30T05:25:56;100085.52;;;19.31;48.27
51053;BME280;37093;37.716;-122.060;2023-07-30T05:28:25;100073.39;;;19.92;47.05
51053;BME280;37093;37.716;-122.060;2023-07-30T05:30:54;100068.42;;;19.99;47.21
51053;BME280;37093;37.716;-122.060;2023-07-30T05:33:22;100065.53;;;19.82;47.37
51053;BME280;37093;37.716;-122.060;2023-07-30T05:35:50;100069.08;;;19.84;48.06
51053;BME280;37093;37.716;-122.060;2023-07-30T05:38:18;100071.24;;;20.02;47.63
51053;BME280;37093;37.716;-122.060;2023-07-30T05:40:47;100067.87;;;19.92;47.23
51053;BME280;37093;37.716;-122.060;2023-07-30T05:43:15;100064.45;;;19.92;46.80
51053;BME280;37093;37.716;-122.060;2023-07-30T05:45:44;100062.17;;;20.09;46.57
51053;BME280;37093;37.716;-122.060;2023-07-30T05:48:12;100058.82;;;20.02;46.62
51053;BME280;37093;37.716;-122.060;2023-07-30T05:50:40;100058.05;;;19.90;46.46
51053;BME280;37093;37.716;-122.060;2023-07-30T05:53:09;100061.58;;;19.88;47.43
51053;BME280;37093;37.716;-122.060;2023-07-30T05:55:37;100063.63;;;19.21;47.38
51053;BME280;37093;37.716;-122.060;2023-07-30T05:58:05;100061.15;;;19.42;48.09
51053;BME280;37093;37.716;-122.060;2023-07-30T06:00:34;100067.92;;;19.11;49.08
51053;BME280;37093;37.716;-122.060;2023-07-30T06:03:02;100065.56;;;19.26;48.41
51053;BME280;37093;37.716;-122.060;2023-07-30T06:05:31;100069.52;;;19.04;49.06
51053;BME280;37093;37.716;-122.060;2023-07-30T06:07:59;100070.60;;;18.46;50.61
51053;BME280;37093;37.716;-122.060;2023-07-30T06:10:27;100070.80;;;18.77;49.65
51053;BME280;37093;37.716;-122.060;2023-07-30T06:12:55;100070.07;;;18.92;50.20
51053;BME280;37093;37.716;-122.060;2023-07-30T06:15:24;100064.93;;;18.74;48.95
51053;BME280;37093;37.716;-122.060;2023-07-30T06:17:52;100065.40;;;18.82;50.71
51053;BME280;37093;37.716;-122.060;2023-07-30T06:20:20;100063.49;;;17.58;52.50
51053;BME280;37093;37.716;-122.060;2023-07-30T06:22:49;100061.02;;;18.53;49.54
51053;BME280;37093;37.716;-122.060;2023-07-30T06:25:17;100060.78;;;18.66;50.32
51053;BME280;37093;37.716;-122.060;2023-07-30T06:27:45;100058.77;;;19.00;49.57
51053;BME280;37093;37.716;-122.060;2023-07-30T06:30:14;100062.18;;;18.90;50.25
51053;BME280;37093;37.716;-122.060;2023-07-30T06:32:42;100062.25;;;18.66;49.59
51053;BME280;37093;37.716;-122.060;2023-07-30T06:35:11;100064.79;;;18.70;50.37
51053;BME280;37093;37.716;-122.060;2023-07-30T06:37:39;100067.47;;;18.48;50.17
51053;BME280;37093;37.716;-122.060;2023-07-30T06:40:08;100074.04;;;18.18;51.80
51053;BME280;37093;37.716;-122.060;2023-07-30T06:42:37;100071.64;;;18.52;51.05
51053;BME280;37093;37.716;-122.060;2023-07-30T06:45:06;100073.53;;;18.23;51.97
51053;BME280;37093;37.716;-122.060;2023-07-30T06:47:35;100074.30;;;18.41;51.19
51053;BME280;37093;37.716;-122.060;2023-07-30T06:50:04;100077.08;;;18.76;50.91
51053;BME280;37093;37.716;-122.060;2023-07-30T06:52:33;100077.43;;;18.50;50.38
51053;BME280;37093;37.716;-122.060;2023-07-30T06:55:01;100076.56;;;19.05;50.39
51053;BME280;37093;37.716;-122.060;2023-07-30T06:57:30;100076.48;;;18.76;49.79
51053;BME280;37093;37.716;-122.060;2023-07-30T06:59:59;100073.45;;;18.86;49.08
51053;BME280;37093;37.716;-122.060;2023-07-30T07:01:14;100073.72;;;18.20;49.21
51053;BME280;37093;37.716;-122.060;2023-07-30T07:03:43;100074.48;;;17.75;48.61
51053;BME280;37093;37.716;-122.060;2023-07-30T07:06:11;100061.61;;;19.75;46.07
51053;BME280;37093;37.716;-122.060;2023-07-30T07:08:39;100065.70;;;19.67;48.83
51053;BME280;37093;37.716;-122.060;2023-07-30T07:11:07;100060.92;;;19.18;48.70
51053;BME280;37093;37.716;-122.060;2023-07-30T07:13:36;100064.22;;;18.71;51.46
51053;BME280;37093;37.716;-122.060;2023-07-30T07:16:04;100065.54;;;19.22;51.27
51053;BME280;37093;37.716;-122.060;2023-07-30T07:18:32;100061.43;;;18.94;51.25
51053;BME280;37093;37.716;-122.060;2023-07-30T07:21:00;100058.80;;;18.92;50.74
51053;BME280;37093;37.716;-122.060;2023-07-30T07:23:28;100056.89;;;18.55;51.84
51053;BME280;37093;37.716;-122.060;2023-07-30T07:25:57;100058.11;;;18.50;52.49
51053;BME280;37093;37.716;-122.060;2023-07-30T07:28:26;100058.62;;;18.60;52.80
51053;BME280;37093;37.716;-122.060;2023-07-30T07:30:55;100057.26;;;18.95;51.91
51053;BME280;37093;37.716;-122.060;2023-07-30T07:33:24;100054.02;;;18.74;51.20
51053;BME280;37093;37.716;-122.060;2023-07-30T07:36:05;100048.73;;;18.71;51.45
51053;BME280;37093;37.716;-122.060;2023-07-30T07:38:34;100047.21;;;18.29;54.86
51053;BME280;37093;37.716;-122.060;2023-07-30T07:41:02;100046.22;;;18.12;54.34
51053;BME280;37093;37.716;-122.060;2023-07-30T07:43:31;100047.00;;;18.26;54.05
51053;BME280;37093;37.716;-122.060;2023-07-30T07:46:00;100047.49;;;18.25;53.32
51053;BME280;37093;37.716;-122.060;2023-07-30T07:48:28;100049.32;;;18.73;52.63
51053;BME280;37093;37.716;-122.060;2023-07-30T07:50:57;100044.67;;;18.49;53.63
51053;BME280;37093;37.716;-122.060;2023-07-30T07:53:25;100040.58;;;18.53;52.96
51053;BME280;37093;37.716;-122.060;2023-07-30T07:55:54;100040.21;;;18.54;53.73
51053;BME280;37093;37.716;-122.060;2023-07-30T07:58:22;100034.15;;;18.30;52.53
51053;BME280;37093;37.716;-122.060;2023-07-30T08:00:54;100037.23;;;18.71;51.45
51053;BME280;37093;37.716;-122.060;2023-07-30T08:03:23;100036.56;;;18.38;52.80
51053;BME280;37093;37.716;-122.060;2023-07-30T08:05:51;100035.08;;;18.56;52.62
51053;BME280;37093;37.716;-122.060;2023-07-30T08:08:19;100031.95;;;18.58;53.04
51053;BME280;37093;37.716;-122.060;2023-07-30T08:10:47;100033.57;;;18.66;52.29
51053;BME280;37093;37.716;-122.060;2023-07-30T08:13:16;100029.17;;;18.87;50.45
51053;BME280;37093;37.716;-122.060;2023-07-30T08:15:44;100027.45;;;18.98;50.40
51053;BME280;37093;37.716;-122.060;2023-07-30T08:18:13;100024.92;;;18.90;49.94
51053;BME280;37093;37.716;-122.060;2023-07-30T08:20:41;100022.93;;;18.64;50.06
51053;BME280;37093;37.716;-122.060;2023-07-30T08:23:10;100021.38;;;18.82;49.57
51053;BME280;37093;37.716;-122.060;2023-07-30T08:25:38;100024.43;;;19.05;49.05
51053;BME280;37093;37.716;-122.060;2023-07-30T08:28:06;100025.44;;;18.96;49.16
51053;BME280;37093;37.716;-122.060;2023-07-30T08:30:34;100020.70;;;18.70;49.03
51053;BME280;37093;37.716;-122.060;2023-07-30T08:33:02;100019.66;;;18.76;49.70
51053;BME280;37093;37.716;-122.060;2023-07-30T08:35:31;100017.89;;;18.43;49.93
51053;BME280;37093;37.716;-122.060;2023-07-30T08:37:59;100014.15;;;18.80;49.98
51053;BME280;37093;37.716;-122.060;2023-07-30T08:40:28;100016.84;;;18.96;49.86
51053;BME280;37093;37.716;-122.060;2023-07-30T08:42:57;100014.32;;;18.48;49.35
51053;BME280;37093;37.716;-122.060;2023-07-30T08:45:26;100016.89;;;18.87;49.55
51053;BME280;37093;37.716;-122.060;2023-07-30T08:47:55;100016.99;;;18.37;49.84
51053;BME280;37093;37.716;-122.060;2023-07-30T08:50:23;100012.78;;;17.94;51.01
51053;BME280;37093;37.716;-122.060;2023-07-30T08:52:51;100011.77;;;18.12;52.33
51053;BME280;37093;37.716;-122.060;2023-07-30T08:55:20;100013.99;;;18.66;50.79
51053;BME280;37093;37.716;-122.060;2023-07-30T08:57:50;100011.76;;;18.52;51.22
51053;BME280;37093;37.716;-122.060;2023-07-30T09:00:19;100013.45;;;18.24;51.24
51053;BME280;37093;37.716;-122.060;2023-07-30T09:02:53;100011.48;;;17.63;52.37
51053;BME280;37093;37.716;-122.060;2023-07-30T09:05:22;100013.66;;;18.16;52.05
51053;BME280;37093;37.716;-122.060;2023-07-30T09:07:51;100008.70;;;18.27;51.64
51053;BME280;37093;37.716;-122.060;2023-07-30T09:10:19;100007.77;;;18.43;50.97
51053;BME280;37093;37.716;-122.060;2023-07-30T09:12:53;100006.31;;;18.74;50.51
51053;BME280;37093;37.716;-122.060;2023-07-30T09:15:29;99997.96;;;18.47;50.77
51053;BME280;37093;37.716;-122.060;2023-07-30T09:17:58;99996.67;;;18.56;50.77
51053;BME280;37093;37.716;-122.060;2023-07-30T09:20:27;99996.33;;;18.06;50.90
51053;BME280;37093;37.716;-122.060;2023-07-30T09:22:57;99994.71;;;18.36;52.13
51053;BME280;37093;37.716;-122.060;2023-07-30T09:25:25;99990.12;;;18.68;50.87
51053;BME280;37093;37.716;-122.060;2023-07-30T09:27:54;99993.02;;;18.58;50.43
51053;BME280;37093;37.716;-122.060;2023-07-30T09:30:24;99992.82;;;18.44;51.05
51053;BME280;37093;37.716;-122.060;2023-07-30T09:32:53;99991.27;;;17.90;51.45
51053;BME280;37093;37.716;-122.060;2023-07-30T09:35:23;99988.90;;;18.45;51.24
51053;BME280;37093;37.716;-122.060;2023-07-30T09:37:58;99991.40;;;18.14;51.90
51053;BME280;37093;37.716;-122.060;2023-07-30T09:40:32;99996.96;;;17.76;52.62
51053;BME280;37093;37.716;-122.060;2023-07-30T09:43:01;99991.88;;;18.00;51.75
51053;BME280;37093;37.716;-122.060;2023-07-30T09:45:34;99992.64;;;18.49;52.04
51053;BME280;37093;37.716;-122.060;2023-07-30T09:48:05;99989.73;;;18.45;51.59
51053;BME280;37093;37.716;-122.060;2023-07-30T09:50:35;99988.17;;;18.67;50.92
51053;BME280;37093;37.716;-122.060;2023-07-30T09:53:04;99986.67;;;18.27;51.96
51053;BME280;37093;37.716;-122.060;2023-07-30T09:55:32;99985.73;;;18.38;51.81
51053;BME280;37093;37.716;-122.060;2023-07-30T09:58:01;99989.87;;;18.13;52.70
51053;BME280;37093;37.716;-122.060;2023-07-30T10:00:30;99985.48;;;18.09;52.27
51053;BME280;37093;37.716;-122.060;2023-07-30T10:02:59;99984.40;;;18.12;52.62
51053;BME280;37093;37.716;-122.060;2023-07-30T10:05:33;99976.40;;;17.73;53.17
51053;BME280;37093;37.716;-122.060;2023-07-30T10:08:06;99974.37;;;17.85;53.75
51053;BME280;37093;37.716;-122.060;2023-07-30T10:10:37;99974.69;;;17.76;53.13
51053;BME280;37093;37.716;-122.060;2023-07-30T10:13:07;99979.24;;;17.89;53.59
51053;BME280;37093;37.716;-122.060;2023-07-30T10:15:36;99980.45;;;17.96;53.17
51053;BME280;37093;37.716;-122.060;2023-07-30T10:18:05;99981.42;;;17.91;53.26
51053;BME280;37093;37.716;-122.060;2023-07-30T10:20:34;99982.18;;;17.98;53.27
51053;BME280;37093;37.716;-122.060;2023-07-30T10:23:05;99978.67;;;17.52;54.37
51053;BME280;37093;37.716;-122.060;2023-07-30T10:25:44;99978.91;;;17.55;54.38
51053;BME280;37093;37.716;-122.060;2023-07-30T10:28:27;99973.95;;;17.64;54.16
51053;BME280;37093;37.716;-122.060;2023-07-30T10:31:01;99969.16;;;17.58;54.04
51053;BME280;37093;37.716;-122.060;2023-07-30T10:33:46;99973.17;;;17.89;53.25
51053;BME280;37093;37.716;-122.060;2023-07-30T10:36:17;99971.01;;;17.97;53.42
51053;BME280;37093;37.716;-122.060;2023-07-30T10:38:46;99971.28;;;18.09;52.54
51053;BME280;37093;37.716;-122.060;2023-07-30T10:41:16;99966.51;;;17.69;53.77
51053;BME280;37093;37.716;-122.060;2023-07-30T10:43:47;99970.71;;;18.32;52.15
51053;BME280;37093;37.716;-122.060;2023-07-30T10:46:18;99968.75;;;17.68;53.24
51053;BME280;37093;37.716;-122.060;2023-07-30T10:48:47;99968.37;;;18.03;53.55
51053;BME280;37093;37.716;-122.060;2023-07-30T10:51:17;99966.83;;;17.66;54.02
51053;BME280;37093;37.716;-122.060;2023-07-30T10:53:47;99964.42;;;17.84;53.39
51053;BME280;37093;37.716;-122.060;2023-07-30T10:56:17;99955.90;;;17.51;53.03
51053;BME280;37093;37.716;-122.060;2023-07-30T10:58:50;99956.76;;;17.71;53.41
51053;BME280;37093;37.716;-122.060;2023-07-30T11:01:19;99955.33;;;17.58;55.56
51053;BME280;37093;37.716;-122.060;2023-07-30T11:03:49;99952.66;;;17.10;56.32
51053;BME280;37093;37.716;-122.060;2023-07-30T11:06:22;99953.18;;;16.93;56.80
51053;BME280;37093;37.716;-122.060;2023-07-30T11:08:51;99951.48;;;16.16;59.95
51053;BME280;37093;37.716;-122.060;2023-07-30T11:11:20;99946.56;;;15.94;60.85
51053;BME280;37093;37.716;-122.060;2023-07-30T11:13:48;99943.66;;;16.57;58.06
51053;BME280;37093;37.716;-122.060;2023-07-30T11:16:17;99938.28;;;16.78;56.66
51053;BME280;37093;37.716;-122.060;2023-07-30T11:18:45;99939.89;;;16.40;57.81
51053;BME280;37093;37.716;-122.060;2023-07-30T11:21:16;99933.32;;;16.76;55.90
51053;BME280;37093;37.716;-122.060;2023-07-30T11:23:45;99931.70;;;17.66;53.93
51053;BME280;37093;37.716;-122.060;2023-07-30T11:26:15;99934.02;;;16.99;54.89
51053;BME280;37093;37.716;-122.060;2023-07-30T11:28:44;99928.29;;;17.44;54.62
51053;BME280;37093;37.716;-122.060;2023-07-30T11:31:14;99926.58;;;16.58;55.68
51053;BME280;37093;37.716;-122.060;2023-07-30T11:33:45;99921.00;;;16.32;56.77
51053;BME280;37093;37.716;-122.060;2023-07-30T11:36:16;99920.15;;;16.86;53.70
51053;BME280;37093;37.716;-122.060;2023-07-30T11:38:45;99922.63;;;17.02;54.78
51053;BME280;37093;37.716;-122.060;2023-07-30T11:41:14;99922.44;;;16.84;55.60
51053;BME280;37093;37.716;-122.060;2023-07-30T11:43:44;99914.05;;;16.79;55.59
51053;BME280;37093;37.716;-122.060;2023-07-30T11:46:14;99914.42;;;17.25;54.01
51053;BME280;37093;37.716;-122.060;2023-07-30T11:48:44;99916.14;;;16.90;54.54
51053;BME280;37093;37.716;-122.060;2023-07-30T11:51:21;99913.51;;;17.08;52.87
51053;BME280;37093;37.716;-122.060;2023-07-30T11:53:52;99916.65;;;17.72;51.68
51053;BME280;37093;37.716;-122.060;2023-07-30T11:56:21;99916.29;;;17.62;52.24
51053;BME280;37093;37.716;-122.060;2023-07-30T11:58:57;99917.81;;;17.62;50.98
51053;BME280;37093;37.716;-122.060;2023-07-30T12:01:27;99920.49;;;17.82;50.82
51053;BME280;37093;37.716;-122.060;2023-07-30T12:03:58;99921.77;;;17.64;50.36
51053;BME280;37093;37.716;-122.060;2023-07-30T12:06:39;99916.33;;;17.54;51.99
51053;BME280;37093;37.716;-122.060;2023-07-30T12:09:11;99923.23;;;16.45;54.44
51053;BME280;37093;37.716;-122.060;2023-07-30T12:11:47;99922.79;;;15.54;58.49
51053;BME280;37093;37.716;-122.060;2023-07-30T12:14:17;99920.50;;;15.41;60.17
51053;BME280;37093;37.716;-122.060;2023-07-30T12:16:46;99918.71;;;15.69;58.85
51053;BME280;37093;37.716;-122.060;2023-07-30T12:19:14;99915.76;;;15.36;59.17
51053;BME280;37093;37.716;-122.060;2023-07-30T12:21:43;99912.89;;;16.50;56.59
51053;BME280;37093;37.716;-122.060;2023-07-30T12:24:12;99907.43;;;16.37;54.60
51053;BME280;37093;37.716;-122.060;2023-07-30T12:26:40;99909.01;;;16.68;53.59
51053;BME280;37093;37.716;-122.060;2023-07-30T12:29:08;99908.22;;;16.48;54.47
51053;BME280;37093;37.716;-122.060;2023-07-30T12:31:36;99910.77;;;16.69;53.63